Share

Max, NE (69037)

Palisade (KNEPALIS1) Elev 2768 ft | 40.35 °N, 101.11 °W | Change Station

Current weather conditions updated 1 second ago

Clear
Clear
65.3 °F
Feels Like 65.3 °F
N
9.2
Wind Variable Wind from North
Gusts 9.2 mph
Sunrise 5:58 AM
Sunset 7:30 PM
Moon Waning Gibbous

Today is forecast to be Cooler than yesterday.

Pressure 30.18 in
Visibility 10.0 miles
Clouds Clear
Dew Point 24 °F
Humidity 21%
Rainfall 0.18 in
Snow Depth Not available.
UV 3 out of 16
Pollen 10.70 out of 12
Air Quality Not available.
Flu Activity Sporadic
METAR KIML 211453Z AUTO 03019KT 10SM CLR 14/M04 A3021 RMK AO2 SLP219 T01441044 51018 $

More Conditions Fewer Conditions

Pressure 30.18 in
Visibility 10.0 miles
Clouds Clear
Dew Point 24 °F
Humidity 21%
Rainfall 0.18 in
Snow Depth Not available.
UV 3 out of 16
Pollen 10.70 out of 12
Air Quality Not available.
Flu Activity Sporadic
METAR KIML 211453Z AUTO 03019KT 10SM CLR 14/M04 A3021 RMK AO2 SLP219 T01441044 51018 $

More Conditions Fewer Conditions

10-Day Weather Forecast

Almanac

Astronomy

Apr. 21, 2014 Rise Set
Actual Time 5:58 AM MDT 7:30 PM MDT
Civil Twilight 5:30 AM MDT 7:58 PM MDT
Nautical Twilight 4:55 AM MDT 8:33 PM MDT
Astronomical Twilight 4:19 AM MDT 9:10 PM MDT
Moon 1:01 AM MDT 11:27 AM MDT
Length of Visible Light 14h 28m
Length of Day
13h 31m
Tomorrow will be 2m 26s longer.
Waning Gibbous, 58% of the Moon is Illuminated
Today
Waning Gibbous
Apr 22
Last Quarter
Apr 29
New
May 6
First Quarter
May 14
Full

Today's Extremes

State Highs State Lows

Community

  • Bright Eyes
    Bright Eyes
  • Snowy Robin
    Snowy Robin
  • Spring Crocus
    Spring Crocus
  • Sun Pillar and Geese
    Sun Pillar and Geese
  • Showers on the Way
    Showers on the Way

WunderPhotos

Upload Photos

1,703,665 photos uploaded!

Nearby

Snow Depth

Station Depth Elevation
No new snow has been reported.

Coastal Water Temperatures

Place Temperature
No Stations Reporting

Earthquake Activity

City Distance Mag. Time & Date
No recent earthquake activity has been reported nearby.
Minimum magnitude displayed is 2.5.

Nearby Weather Stations

Station Location Temp. Dew Point Humidity Wind Precip. Elev Updated Type
Palisade, Palisade, NE 65.3 °F 24 °F 21% North  at  9.2 mph 0.00 in / hr 2768 ft 10:30 AM CDT Rapid Fire
Kastens Grain, Atwood, KS 58.5 °F 31 °F 36% NNE  at  20.0 mph 0.00 in / hr 3077 ft 10:25 AM CDT Normal

Show More Stations Show Fewer Stations

What do you think?

We're not finished. Please let us know what you like, what you don't like, and what you are still missing.